createdAt,value
2019-02-07T00:00:17.995Z,311.02
2019-02-07T00:02:46.265Z,299.45
2019-02-07T00:05:14.671Z,240.90
2019-02-07T00:07:43.713Z,298.40
2019-02-07T00:10:19.989Z,287.08
2019-02-07T00:12:48.310Z,240.00
2019-02-07T00:15:16.821Z,256.95
2019-02-07T00:17:45.103Z,311.73
2019-02-07T00:20:16.636Z,303.67
2019-02-07T00:22:44.933Z,283.75
2019-02-07T00:25:13.277Z,308.17
2019-02-07T00:27:41.538Z,288.32
2019-02-07T00:30:18.670Z,278.35
2019-02-07T00:32:46.940Z,244.62
2019-02-07T00:35:15.241Z,254.93
2019-02-07T00:37:43.537Z,258.98
2019-02-07T00:40:16.792Z,223.57
2019-02-07T00:42:45.393Z,214.27
2019-02-07T00:45:17.693Z,210.00
2019-02-07T00:47:46.017Z,189.80
2019-02-07T00:50:18.399Z,219.55
2019-02-07T00:52:49.200Z,200.18
2019-02-07T00:55:18.034Z,164.28
2019-02-07T00:57:46.314Z,182.47
2019-02-07T01:00:23.212Z,190.43
2019-02-07T01:02:51.496Z,167.75
2019-02-07T01:05:20.909Z,169.25
2019-02-07T01:07:49.484Z,143.37
2019-02-07T01:10:23.898Z,165.20
2019-02-07T01:12:52.162Z,185.90
2019-02-07T01:15:20.631Z,179.18
2019-02-07T01:17:49.037Z,175.07
2019-02-07T01:20:17.485Z,182.97
2019-02-07T01:22:45.838Z,146.72
2019-02-07T01:25:20.170Z,172.15
2019-02-07T01:27:48.452Z,168.17
2019-02-07T01:30:20.006Z,192.92
2019-02-07T01:32:48.286Z,232.62
2019-02-07T01:35:16.575Z,200.53
2019-02-07T01:37:44.846Z,205.72
2019-02-07T01:40:16.124Z,184.85
2019-02-07T01:42:44.418Z,180.57
2019-02-07T01:45:19.270Z,170.45
2019-02-07T01:47:49.212Z,155.93
2019-02-07T01:50:22.076Z,194.75
2019-02-07T01:52:50.632Z,258.80
2019-02-07T01:55:18.918Z,180.48
2019-02-07T01:57:47.192Z,196.40
2019-02-07T02:00:17.262Z,165.00
2019-02-07T02:02:45.613Z,216.40
2019-02-07T02:05:15.513Z,191.37
2019-02-07T02:07:44.196Z,148.00
2019-02-07T02:10:15.601Z,194.82
2019-02-07T02:12:43.876Z,146.90
2019-02-07T02:15:23.716Z,180.20
2019-02-07T02:17:42.925Z,217.87
2019-02-07T02:20:19.080Z,175.10
2019-02-07T02:22:47.374Z,149.30
2019-02-07T02:25:15.650Z,173.50
2019-02-07T02:27:43.947Z,184.18
2019-02-07T02:30:45.446Z,189.40
2019-02-07T02:33:13.718Z,231.05
2019-02-07T02:35:41.983Z,195.72
2019-02-07T02:38:10.273Z,190.00
2019-02-07T02:40:38.547Z,164.20
2019-02-07T02:43:06.822Z,267.05
2019-02-07T02:45:37.639Z,220.90
2019-02-07T02:48:05.080Z,221.80
2019-02-07T02:50:33.332Z,187.72
2019-02-07T02:53:01.607Z,237.57
2019-02-07T02:55:34.511Z,204.03
2019-02-07T02:58:02.922Z,199.90
2019-02-07T03:00:44.801Z,212.15
2019-02-07T03:03:26.737Z,173.07
2019-02-07T03:06:12.535Z,152.75
2019-02-07T03:08:45.795Z,268.00
2019-02-07T03:11:24.981Z,169.57
2019-02-07T03:13:57.714Z,129.38
2019-02-07T03:16:36.849Z,117.20
2019-02-07T03:19:09.485Z,156.30
2019-02-07T03:21:39.462Z,147.82
2019-02-07T03:24:15.289Z,134.85
2019-02-07T03:27:01.467Z,126.02
2019-02-07T03:29:37.617Z,133.47
2019-02-07T03:32:07.938Z,116.62
2019-02-07T03:34:37.991Z,135.15
2019-02-07T03:37:07.891Z,111.92
2019-02-07T03:39:43.677Z,94.75
2019-02-07T03:42:13.577Z,171.00
2019-02-07T03:44:46.635Z,121.70
2019-02-07T03:47:16.573Z,112.85
2019-02-07T03:49:46.485Z,112.75
2019-02-07T03:52:16.794Z,103.17
2019-02-07T03:54:46.685Z,103.45
2019-02-07T03:57:16.623Z,91.10
2019-02-07T03:59:55.507Z,127.10
2019-02-07T04:02:30.958Z,125.70
2019-02-07T04:05:04.038Z,87.27
2019-02-07T04:07:45.643Z,87.88
2019-02-07T04:10:18.543Z,89.25
2019-02-07T04:12:57.497Z,82.72
2019-02-07T04:15:33.171Z,93.50
2019-02-07T04:18:11.900Z,99.07
2019-02-07T04:20:57.661Z,88.30
2019-02-07T04:23:46.828Z,86.45
2019-02-07T04:26:32.928Z,97.60
2019-02-07T04:29:05.461Z,101.97
2019-02-07T04:31:37.939Z,93.50
2019-02-07T04:34:16.819Z,92.10
2019-02-07T04:36:48.363Z,82.90
2019-02-07T04:39:21.297Z,95.92
2019-02-07T04:41:54.188Z,89.00
2019-02-07T04:44:26.552Z,83.42
2019-02-07T04:46:56.466Z,74.92
2019-02-07T04:49:26.427Z,78.22
2019-02-07T04:52:08.420Z,83.33
2019-02-07T04:54:41.357Z,80.38
2019-02-07T04:57:13.976Z,86.50
2019-02-07T04:59:49.860Z,68.65
2019-02-07T05:02:35.237Z,75.10
2019-02-07T05:05:08.087Z,84.55
2019-02-07T05:07:54.280Z,71.65
2019-02-07T05:10:24.285Z,78.95
2019-02-07T05:13:10.659Z,76.57
2019-02-07T05:15:49.632Z,66.40
2019-02-07T05:18:22.901Z,75.67
2019-02-07T05:20:52.818Z,65.65
2019-02-07T05:23:22.736Z,69.20
2019-02-07T05:25:58.452Z,97.30
2019-02-07T05:28:31.010Z,62.70
2019-02-07T05:31:07.323Z,63.45
2019-02-07T05:33:42.800Z,62.70
2019-02-07T05:36:29.159Z,70.08
2019-02-07T05:39:01.757Z,67.53
2019-02-07T05:41:37.588Z,60.43
2019-02-07T05:44:19.600Z,62.25
2019-02-07T05:47:04.146Z,59.42
2019-02-07T05:49:41.953Z,65.75
2019-02-07T05:52:20.031Z,57.78
2019-02-07T05:55:06.392Z,55.03
2019-02-07T05:57:52.443Z,57.95
2019-02-07T06:00:34.205Z,49.20
2019-02-07T06:03:04.122Z,69.35
2019-02-07T06:05:34.031Z,56.60
2019-02-07T06:08:19.925Z,81.12
2019-02-07T06:11:00.163Z,56.88
2019-02-07T06:13:33.327Z,57.80
2019-02-07T06:16:19.161Z,56.85
2019-02-07T06:19:05.409Z,57.83
2019-02-07T06:21:35.714Z,56.15
2019-02-07T06:24:22.043Z,55.73
2019-02-07T06:26:54.945Z,50.50
2019-02-07T06:29:32.352Z,62.08
2019-02-07T06:32:11.201Z,53.33
2019-02-07T06:34:47.403Z,52.48
2019-02-07T06:37:26.290Z,52.93
2019-02-07T06:40:05.631Z,55.12
2019-02-07T06:42:38.193Z,56.18
2019-02-07T06:45:14.204Z,56.42
2019-02-07T06:47:49.996Z,56.02
2019-02-07T06:50:34.860Z,56.58
2019-02-07T06:53:21.245Z,55.88
2019-02-07T06:55:55.945Z,47.13
2019-02-07T06:58:41.871Z,51.15
2019-02-07T07:01:14.745Z,64.82
2019-02-07T07:03:57.766Z,65.85
2019-02-07T07:06:27.814Z,48.78
2019-02-07T07:09:00.731Z,58.70
2019-02-07T07:11:46.726Z,58.75
2019-02-07T07:14:26.131Z,50.23
2019-02-07T07:16:56.059Z,51.50
2019-02-07T07:19:41.099Z,47.30
2019-02-07T07:25:00.502Z,52.62
2019-02-07T07:27:39.493Z,56.18
2019-02-07T07:30:15.433Z,55.38
2019-02-07T07:32:51.242Z,51.20
2019-02-07T07:35:37.050Z,47.43
2019-02-07T07:38:19.202Z,48.02
2019-02-07T07:40:49.180Z,44.15
2019-02-07T07:43:30.403Z,47.00
2019-02-07T07:46:16.064Z,52.03
2019-02-07T07:48:45.994Z,45.33
2019-02-07T07:51:15.894Z,41.83
2019-02-07T07:53:51.771Z,47.25
2019-02-07T07:56:39.047Z,43.83
2019-02-07T07:59:20.664Z,45.05
2019-02-07T08:01:59.453Z,42.65
2019-02-07T08:04:41.642Z,49.73
2019-02-07T08:07:20.086Z,41.88
2019-02-07T08:09:50.022Z,42.95
2019-02-07T08:12:31.913Z,38.88
2019-02-07T08:15:02.388Z,38.95
2019-02-07T08:17:35.080Z,42.73
2019-02-07T08:20:05.549Z,42.60
2019-02-07T08:22:40.965Z,38.90
2019-02-07T08:25:10.911Z,38.35
2019-02-07T08:27:44.123Z,46.18
2019-02-07T08:30:16.806Z,36.23
2019-02-07T08:32:55.544Z,39.45
2019-02-07T08:35:34.278Z,37.35
2019-02-07T08:38:04.407Z,41.25
2019-02-07T08:43:51.435Z,35.78
2019-02-07T08:46:29.989Z,34.78
2019-02-07T08:49:01.080Z,34.53
2019-02-07T08:51:47.332Z,35.88
2019-02-07T08:54:26.491Z,36.73
2019-02-07T08:56:56.399Z,37.85
2019-02-07T08:59:32.131Z,31.33
2019-02-07T09:02:02.047Z,32.83
2019-02-07T09:04:48.090Z,36.20
2019-02-07T09:07:32.780Z,35.38
2019-02-07T09:10:14.775Z,34.88
2019-02-07T09:13:02.778Z,37.48
2019-02-07T09:15:38.655Z,37.73
2019-02-07T09:18:25.180Z,35.68
2019-02-07T09:20:57.763Z,41.58
2019-02-07T09:23:45.933Z,38.67
2019-02-07T09:26:33.701Z,38.60
2019-02-07T09:29:09.350Z,40.55
2019-02-07T09:31:57.591Z,37.17
2019-02-07T09:34:33.058Z,37.48
2019-02-07T09:37:19.499Z,39.30
2019-02-07T09:39:56.077Z,40.75
2019-02-07T09:42:32.031Z,36.65
2019-02-07T09:45:17.094Z,38.55
2019-02-07T09:50:22.659Z,40.08
2019-02-07T09:53:04.588Z,35.78
2019-02-07T09:55:40.085Z,38.13
2019-02-07T09:58:12.740Z,41.48
2019-02-07T10:00:42.681Z,37.10
2019-02-07T10:03:12.597Z,35.58
2019-02-07T10:05:45.089Z,38.35
2019-02-07T10:08:33.628Z,39.42
2019-02-07T10:11:03.596Z,38.80
2019-02-07T10:13:33.499Z,35.00
2019-02-07T10:16:09.487Z,44.70
2019-02-07T10:18:54.749Z,40.70
2019-02-07T10:21:30.869Z,44.95
2019-02-07T10:24:09.765Z,41.18
2019-02-07T10:26:51.935Z,39.67
2019-02-07T10:29:28.065Z,42.80
2019-02-07T10:32:12.968Z,42.25
2019-02-07T10:34:52.128Z,47.80
2019-02-07T10:37:32.239Z,42.90
2019-02-07T10:40:17.212Z,51.33
2019-02-07T10:43:02.266Z,40.17
2019-02-07T10:48:26.752Z,39.13
2019-02-07T10:51:00.182Z,42.67
2019-02-07T10:53:30.369Z,41.98
2019-02-07T10:56:05.750Z,42.95
2019-02-07T10:58:51.744Z,52.95
2019-02-07T11:01:21.684Z,42.48
2019-02-07T11:03:54.579Z,47.43
2019-02-07T11:06:24.506Z,50.92
2019-02-07T11:09:10.739Z,40.28
2019-02-07T11:11:49.842Z,43.65
2019-02-07T11:14:22.413Z,41.45
2019-02-07T11:16:52.360Z,45.78
2019-02-07T11:19:26.389Z,43.05
2019-02-07T11:22:05.544Z,42.58
2019-02-07T11:24:35.466Z,39.85
2019-02-07T11:27:14.304Z,39.48
2019-02-07T11:29:50.490Z,45.78
2019-02-07T11:32:29.654Z,41.30
2019-02-07T11:34:59.561Z,41.30
2019-02-07T11:37:41.746Z,40.95
2019-02-07T11:40:13.865Z,41.58
2019-02-07T11:42:46.998Z,38.75
2019-02-07T11:45:25.856Z,41.10
2019-02-07T11:47:55.824Z,44.55
2019-02-07T11:50:25.842Z,42.30
2019-02-07T11:53:01.956Z,39.27
2019-02-07T11:55:31.863Z,41.33
2019-02-07T11:58:10.526Z,40.63
2019-02-07T12:00:58.542Z,45.83
2019-02-07T12:03:37.044Z,41.02
2019-02-07T12:06:09.992Z,35.38
2019-02-07T12:08:42.659Z,41.68
2019-02-07T12:11:15.551Z,37.98
2019-02-07T12:13:45.482Z,40.17
2019-02-07T12:16:32.228Z,42.88
2019-02-07T12:19:02.151Z,38.70
2019-02-07T12:21:34.926Z,39.10
2019-02-07T12:24:04.875Z,34.27
2019-02-07T12:26:37.506Z,36.80
2019-02-07T12:29:23.581Z,37.65
2019-02-07T12:32:02.513Z,35.68
2019-02-07T12:34:41.451Z,36.50
2019-02-07T12:37:13.968Z,34.18
2019-02-07T12:39:43.918Z,39.27
2019-02-07T12:42:16.381Z,35.38
2019-02-07T12:45:04.689Z,33.48
2019-02-07T12:47:37.212Z,31.62
2019-02-07T12:50:26.551Z,29.82
2019-02-07T12:52:59.404Z,30.23
2019-02-07T12:55:29.361Z,35.33
2019-02-07T12:58:08.271Z,29.07
2019-02-07T13:00:54.673Z,30.65
2019-02-07T13:03:40.637Z,28.62
2019-02-07T13:06:26.969Z,27.87
2019-02-07T13:08:56.886Z,28.95
2019-02-07T13:11:33.244Z,28.60
2019-02-07T13:16:56.758Z,24.67
2019-02-07T13:19:41.229Z,28.67
2019-02-07T13:22:13.821Z,25.27
2019-02-07T13:24:44.141Z,25.20
2019-02-07T13:27:30.003Z,26.15
2019-02-07T13:30:15.009Z,24.02
2019-02-07T13:32:54.794Z,26.10
2019-02-07T13:35:40.977Z,25.30
2019-02-07T13:38:13.571Z,26.70
2019-02-07T13:40:59.684Z,25.60
2019-02-07T13:43:45.793Z,25.15
2019-02-07T13:46:15.718Z,24.25
2019-02-07T13:48:45.649Z,23.67
2019-02-07T13:51:15.633Z,21.33
2019-02-07T13:53:54.810Z,23.57
2019-02-07T13:56:37.045Z,23.32
2019-02-07T13:59:15.668Z,24.40
2019-02-07T14:01:45.573Z,22.07
2019-02-07T14:04:21.278Z,23.98
2019-02-07T14:07:02.737Z,20.72
2019-02-07T14:09:42.259Z,21.20
2019-02-07T14:12:12.198Z,22.80
2019-02-07T14:14:47.561Z,20.90
2019-02-07T14:17:29.749Z,22.42
2019-02-07T14:20:08.663Z,25.12
2019-02-07T14:22:38.636Z,25.85
2019-02-07T14:25:28.489Z,22.22
2019-02-07T14:27:58.432Z,23.52
2019-02-07T14:30:28.360Z,22.15
2019-02-07T14:33:04.257Z,23.30
2019-02-07T14:35:36.891Z,22.00
2019-02-07T14:38:07.186Z,24.87
2019-02-07T14:40:39.687Z,25.32
2019-02-07T14:43:09.608Z,23.85
2019-02-07T14:45:42.314Z,26.35
2019-02-07T14:48:12.255Z,25.02
2019-02-07T14:50:40.519Z,21.70
2019-02-07T14:53:08.779Z,22.27
2019-02-07T14:55:37.090Z,27.07
2019-02-07T14:58:05.371Z,24.27
2019-02-07T15:00:33.636Z,25.50
2019-02-07T15:03:01.901Z,23.80
2019-02-07T15:05:31.476Z,26.60
2019-02-07T15:08:00.216Z,23.32
2019-02-07T15:10:28.564Z,22.13
2019-02-07T15:12:56.890Z,16.52
2019-02-07T15:15:25.174Z,19.30
2019-02-07T15:17:53.446Z,25.35
2019-02-07T15:20:26.194Z,21.12
2019-02-07T15:22:51.749Z,19.35
2019-02-07T15:25:20.163Z,18.07
2019-02-07T15:27:48.470Z,22.82
2019-02-07T15:30:21.528Z,24.92
2019-02-07T15:32:49.771Z,24.45
2019-02-07T15:35:27.098Z,23.10
2019-02-07T15:37:55.643Z,20.23
2019-02-07T15:40:25.760Z,20.30
2019-02-07T15:42:54.122Z,21.68
2019-02-07T15:45:22.918Z,20.68
2019-02-07T15:47:51.177Z,18.80
2019-02-07T15:50:22.007Z,23.15
2019-02-07T15:52:52.135Z,20.57
2019-02-07T15:55:20.631Z,24.65
2019-02-07T15:57:49.920Z,17.25
2019-02-07T16:00:33.785Z,20.88
2019-02-07T16:03:06.166Z,17.85
2019-02-07T16:05:34.612Z,20.40
2019-02-07T16:08:02.949Z,17.37
2019-02-07T16:10:31.207Z,21.25
2019-02-07T16:12:59.519Z,21.62
2019-02-07T16:15:27.795Z,19.70
2019-02-07T16:17:56.083Z,16.62
2019-02-07T16:20:24.761Z,22.58
2019-02-07T16:22:53.111Z,18.62
2019-02-07T16:25:21.492Z,23.83
2019-02-07T16:27:49.818Z,22.77
2019-02-07T16:30:21.677Z,18.85
2019-02-07T16:32:49.963Z,19.25
2019-02-07T16:35:20.274Z,19.67
2019-02-07T16:37:48.845Z,16.05
2019-02-07T16:40:21.875Z,22.55
2019-02-07T16:42:49.451Z,25.90
2019-02-07T16:45:20.976Z,24.55
2019-02-07T16:47:49.240Z,19.77
2019-02-07T16:50:20.615Z,17.40
2019-02-07T16:52:48.930Z,20.65
2019-02-07T16:55:17.339Z,20.85
2019-02-07T16:57:45.709Z,18.95
2019-02-07T17:00:32.327Z,18.92
2019-02-07T17:03:00.575Z,18.75
2019-02-07T17:05:28.854Z,18.70
2019-02-07T17:07:57.143Z,25.80
2019-02-07T17:10:52.373Z,21.57
2019-02-07T17:13:20.820Z,23.52
2019-02-07T17:15:49.101Z,18.52
2019-02-07T17:18:17.390Z,18.23
2019-02-07T17:20:45.699Z,21.62
2019-02-07T17:23:14.004Z,15.25
2019-02-07T17:25:42.278Z,19.92
2019-02-07T17:28:10.809Z,21.73
2019-02-07T17:30:39.111Z,17.98
2019-02-07T17:33:07.380Z,20.50
2019-02-07T17:35:35.715Z,24.55
2019-02-07T17:38:05.781Z,14.58
2019-02-07T17:40:34.068Z,17.92
2019-02-07T17:43:02.329Z,26.82
2019-02-07T17:45:32.013Z,20.85
2019-02-07T17:48:00.272Z,21.97
2019-02-07T17:50:40.272Z,21.65
2019-02-07T17:53:09.885Z,22.93
2019-02-07T17:55:38.154Z,20.77
2019-02-07T17:58:07.166Z,19.73
2019-02-07T18:00:40.335Z,23.10
2019-02-07T18:03:08.597Z,22.30
2019-02-07T18:05:36.905Z,28.70
2019-02-07T18:08:05.470Z,19.02
2019-02-07T18:10:33.772Z,21.65
2019-02-07T18:13:02.030Z,16.75
2019-02-07T18:15:30.297Z,16.75
2019-02-07T18:18:02.777Z,22.50
2019-02-07T18:20:30.230Z,20.60
2019-02-07T18:23:00.208Z,20.40
2019-02-07T18:25:28.493Z,18.57
2019-02-07T18:27:56.832Z,19.52
2019-02-07T18:30:25.356Z,19.50
2019-02-07T18:32:53.662Z,15.78
2019-02-07T18:35:22.047Z,14.98
2019-02-07T18:37:50.335Z,25.32
2019-02-07T18:40:24.057Z,16.62
2019-02-07T18:42:52.359Z,28.02
2019-02-07T18:45:21.555Z,18.23
2019-02-07T18:47:49.952Z,16.82
2019-02-07T18:50:28.074Z,22.02
2019-02-07T18:52:56.745Z,20.90
2019-02-07T18:55:25.408Z,19.98
2019-02-07T18:57:53.762Z,19.95
2019-02-07T19:00:28.108Z,23.12
2019-02-07T19:02:56.376Z,24.27
2019-02-07T19:05:26.356Z,24.30
2019-02-07T19:07:54.732Z,22.32
2019-02-07T19:10:29.613Z,23.02
2019-02-07T19:12:58.570Z,19.80
2019-02-07T19:15:45.897Z,23.42
2019-02-07T19:18:14.370Z,28.75
2019-02-07T19:20:42.873Z,22.50
2019-02-07T19:23:11.173Z,22.45
2019-02-07T19:25:39.867Z,17.30
2019-02-07T19:28:11.254Z,21.45
2019-02-07T19:30:39.565Z,24.90
2019-02-07T19:33:07.948Z,22.90
2019-02-07T19:35:37.881Z,23.83
2019-02-07T19:38:06.250Z,22.82
2019-02-07T19:40:38.089Z,20.43
2019-02-07T19:43:06.402Z,20.15
2019-02-07T19:45:34.691Z,19.35
2019-02-07T19:48:02.986Z,25.35
2019-02-07T19:50:31.292Z,19.85
2019-02-07T19:52:59.591Z,21.75
2019-02-07T19:55:33.226Z,24.30
2019-02-07T19:58:01.527Z,24.30
2019-02-07T20:00:31.764Z,22.93
2019-02-07T20:03:00.224Z,22.73
2019-02-07T20:05:28.663Z,22.62
2019-02-07T20:07:57.098Z,21.60
2019-02-07T20:10:27.207Z,22.42
2019-02-07T20:12:56.584Z,21.15
2019-02-07T20:15:28.190Z,22.00
2019-02-07T20:17:59.764Z,18.87
2019-02-07T20:20:26.617Z,19.27
2019-02-07T20:22:55.050Z,21.30
2019-02-07T20:25:23.571Z,24.25
2019-02-07T20:27:51.887Z,19.25
2019-02-07T20:30:31.611Z,20.17
2019-02-07T20:33:01.149Z,17.62
2019-02-07T20:35:29.411Z,22.37
2019-02-07T20:37:57.741Z,18.75
2019-02-07T20:40:27.744Z,20.32
2019-02-07T20:42:56.191Z,17.32
2019-02-07T20:45:24.821Z,22.07
2019-02-07T20:47:53.206Z,22.00
2019-02-07T20:50:26.784Z,19.20
2019-02-07T20:52:55.092Z,17.98
2019-02-07T20:55:23.706Z,17.35
2019-02-07T20:57:52.360Z,17.92
2019-02-07T21:00:31.927Z,15.03
2019-02-07T21:03:00.228Z,17.40
2019-02-07T21:05:30.032Z,16.70
2019-02-07T21:08:01.146Z,16.62
2019-02-07T21:10:31.469Z,11.35
2019-02-07T21:12:59.809Z,12.37
2019-02-07T21:15:28.407Z,12.58
2019-02-07T21:17:56.754Z,11.10
2019-02-07T21:20:27.625Z,7.80
2019-02-07T21:22:56.747Z,10.98
2019-02-07T21:25:32.229Z,7.78
2019-02-07T21:28:02.347Z,10.60
2019-02-07T21:30:37.549Z,12.15
2019-02-07T21:33:06.259Z,10.48
2019-02-07T21:35:34.572Z,11.95
2019-02-07T21:38:02.925Z,10.88
2019-02-07T21:40:34.090Z,13.78
2019-02-07T21:43:02.355Z,8.50
2019-02-07T21:45:30.993Z,12.40
2019-02-07T21:48:00.002Z,10.40
2019-02-07T21:50:30.309Z,9.48
2019-02-07T21:53:00.234Z,9.85
2019-02-07T21:55:36.025Z,12.60
2019-02-07T21:58:05.648Z,10.53
2019-02-07T22:00:36.235Z,15.00
2019-02-07T22:03:07.427Z,13.75
2019-02-07T22:05:35.700Z,9.90
2019-02-07T22:08:04.544Z,11.73
2019-02-07T22:10:32.814Z,12.37
2019-02-07T22:13:01.077Z,12.30
2019-02-07T22:15:29.907Z,11.18
2019-02-07T22:17:58.186Z,13.55
2019-02-07T22:20:28.185Z,11.73
2019-02-07T22:22:57.089Z,11.60
2019-02-07T22:25:25.354Z,13.53
2019-02-07T22:27:53.636Z,13.83
2019-02-07T22:30:27.650Z,13.58
2019-02-07T22:32:56.010Z,14.25
2019-02-07T22:35:29.972Z,10.32
2019-02-07T22:37:58.281Z,15.55
2019-02-07T22:40:26.636Z,13.25
2019-02-07T22:42:54.922Z,12.58
2019-02-07T22:45:26.622Z,9.68
2019-02-07T22:47:54.875Z,15.65
2019-02-07T22:50:30.589Z,14.18
2019-02-07T22:53:00.519Z,17.10
2019-02-07T22:55:28.838Z,14.15
2019-02-07T22:57:57.135Z,16.48
2019-02-07T23:00:36.505Z,13.75
2019-02-07T23:03:10.085Z,14.58
2019-02-07T23:05:38.369Z,17.90
2019-02-07T23:08:06.631Z,12.95
2019-02-07T23:10:34.936Z,17.75
2019-02-07T23:13:03.601Z,13.03
2019-02-07T23:15:31.845Z,17.05
2019-02-07T23:18:00.099Z,15.50
2019-02-07T23:20:28.383Z,13.00
2019-02-07T23:23:04.567Z,14.25
2019-02-07T23:25:26.681Z,11.63
2019-02-07T23:27:55.439Z,17.75
2019-02-07T23:30:23.712Z,17.70
2019-02-07T23:32:51.997Z,15.78
2019-02-07T23:35:21.963Z,16.15
2019-02-07T23:37:50.213Z,11.65
2019-02-07T23:40:22.722Z,11.90
2019-02-07T23:42:50.965Z,15.13
2019-02-07T23:45:21.105Z,17.60
2019-02-07T23:47:49.434Z,15.35
2019-02-07T23:50:17.764Z,13.08
2019-02-07T23:52:46.023Z,14.23
2019-02-07T23:55:15.148Z,16.85
2019-02-07T23:57:43.439Z,16.25
